sensor_id;sensor_type;location;lat;lon;timestamp;P1;durP1;ratioP1;P2;durP2;ratioP2
50363;SDS011;36272;59.400;17.982;2023-06-22T00:04:54;11.90;;;8.75;;
50363;SDS011;36272;59.400;17.982;2023-06-22T00:09:56;10.77;;;8.57;;
50363;SDS011;36272;59.400;17.982;2023-06-22T00:14:57;11.93;;;8.98;;
50363;SDS011;36272;59.400;17.982;2023-06-22T00:19:59;12.00;;;8.77;;
50363;SDS011;36272;59.400;17.982;2023-06-22T00:25:01;11.73;;;9.23;;
50363;SDS011;36272;59.400;17.982;2023-06-22T00:30:03;11.68;;;8.75;;
50363;SDS011;36272;59.400;17.982;2023-06-22T00:35:05;10.38;;;9.07;;
50363;SDS011;36272;59.400;17.982;2023-06-22T00:40:06;13.27;;;9.23;;
50363;SDS011;36272;59.400;17.982;2023-06-22T00:45:09;12.95;;;9.20;;
50363;SDS011;36272;59.400;17.982;2023-06-22T00:50:12;10.27;;;8.85;;
50363;SDS011;36272;59.400;17.982;2023-06-22T00:55:20;13.35;;;9.57;;
50363;SDS011;36272;59.400;17.982;2023-06-22T01:00:23;11.35;;;8.73;;
50363;SDS011;36272;59.400;17.982;2023-06-22T01:05:26;14.73;;;9.45;;
50363;SDS011;36272;59.400;17.982;2023-06-22T01:10:48;13.18;;;9.38;;
50363;SDS011;36272;59.400;17.982;2023-06-22T01:16:23;12.45;;;9.90;;
50363;SDS011;36272;59.400;17.982;2023-06-22T01:32:07;13.18;;;10.35;;
50363;SDS011;36272;59.400;17.982;2023-06-22T01:37:10;12.45;;;11.02;;
50363;SDS011;36272;59.400;17.982;2023-06-22T01:42:12;13.40;;;11.40;;
50363;SDS011;36272;59.400;17.982;2023-06-22T01:47:14;13.90;;;11.30;;
50363;SDS011;36272;59.400;17.982;2023-06-22T01:52:17;12.70;;;11.35;;
50363;SDS011;36272;59.400;17.982;2023-06-22T01:57:19;14.82;;;11.88;;
50363;SDS011;36272;59.400;17.982;2023-06-22T02:02:21;17.15;;;12.45;;
50363;SDS011;36272;59.400;17.982;2023-06-22T02:07:29;14.82;;;12.32;;
50363;SDS011;36272;59.400;17.982;2023-06-22T02:12:35;15.90;;;12.82;;
50363;SDS011;36272;59.400;17.982;2023-06-22T02:17:37;17.80;;;12.18;;
50363;SDS011;36272;59.400;17.982;2023-06-22T02:22:39;13.57;;;12.18;;
50363;SDS011;36272;59.400;17.982;2023-06-22T02:27:41;14.98;;;12.40;;
50363;SDS011;36272;59.400;17.982;2023-06-22T02:32:43;15.77;;;12.20;;
50363;SDS011;36272;59.400;17.982;2023-06-22T02:37:45;15.50;;;12.43;;
50363;SDS011;36272;59.400;17.982;2023-06-22T02:42:47;17.52;;;12.75;;
50363;SDS011;36272;59.400;17.982;2023-06-22T02:47:49;14.55;;;12.93;;
50363;SDS011;36272;59.400;17.982;2023-06-22T02:52:51;16.33;;;12.68;;
50363;SDS011;36272;59.400;17.982;2023-06-22T02:57:53;15.13;;;12.38;;
50363;SDS011;36272;59.400;17.982;2023-06-22T03:02:54;19.33;;;13.27;;
50363;SDS011;36272;59.400;17.982;2023-06-22T03:07:56;14.23;;;11.88;;
50363;SDS011;36272;59.400;17.982;2023-06-22T03:12:57;12.65;;;11.18;;
50363;SDS011;36272;59.400;17.982;2023-06-22T03:17:59;13.52;;;10.80;;
50363;SDS011;36272;59.400;17.982;2023-06-22T03:23:01;15.52;;;11.43;;
50363;SDS011;36272;59.400;17.982;2023-06-22T03:28:02;15.45;;;12.15;;
50363;SDS011;36272;59.400;17.982;2023-06-22T03:33:04;12.70;;;11.35;;
50363;SDS011;36272;59.400;17.982;2023-06-22T03:38:05;14.82;;;11.63;;
50363;SDS011;36272;59.400;17.982;2023-06-22T03:43:07;12.38;;;11.07;;
50363;SDS011;36272;59.400;17.982;2023-06-22T03:48:09;12.32;;;11.02;;
50363;SDS011;36272;59.400;17.982;2023-06-22T03:53:10;13.80;;;11.90;;
50363;SDS011;36272;59.400;17.982;2023-06-22T03:58:12;12.23;;;10.93;;
50363;SDS011;36272;59.400;17.982;2023-06-22T04:03:14;13.43;;;11.63;;
50363;SDS011;36272;59.400;17.982;2023-06-22T04:08:16;13.43;;;12.05;;
50363;SDS011;36272;59.400;17.982;2023-06-22T04:13:19;14.23;;;11.15;;
50363;SDS011;36272;59.400;17.982;2023-06-22T04:18:20;13.00;;;11.23;;
50363;SDS011;36272;59.400;17.982;2023-06-22T04:23:22;17.08;;;11.57;;
50363;SDS011;36272;59.400;17.982;2023-06-22T04:28:24;12.27;;;10.80;;
50363;SDS011;36272;59.400;17.982;2023-06-22T04:33:25;13.27;;;10.57;;
50363;SDS011;36272;59.400;17.982;2023-06-22T04:38:27;12.20;;;9.95;;
50363;SDS011;36272;59.400;17.982;2023-06-22T04:43:29;21.55;;;11.07;;
50363;SDS011;36272;59.400;17.982;2023-06-22T04:48:33;12.83;;;10.00;;
50363;SDS011;36272;59.400;17.982;2023-06-22T04:53:40;11.85;;;9.93;;
50363;SDS011;36272;59.400;17.982;2023-06-22T04:58:42;11.90;;;9.30;;
50363;SDS011;36272;59.400;17.982;2023-06-22T05:03:43;12.30;;;9.35;;
50363;SDS011;36272;59.400;17.982;2023-06-22T05:08:47;14.70;;;9.57;;
50363;SDS011;36272;59.400;17.982;2023-06-22T05:13:48;10.43;;;9.32;;
50363;SDS011;36272;59.400;17.982;2023-06-22T05:18:51;16.27;;;9.73;;
50363;SDS011;36272;59.400;17.982;2023-06-22T05:23:54;11.57;;;9.17;;
50363;SDS011;36272;59.400;17.982;2023-06-22T05:28:57;10.38;;;8.65;;
50363;SDS011;36272;59.400;17.982;2023-06-22T05:33:59;10.32;;;8.82;;
50363;SDS011;36272;59.400;17.982;2023-06-22T05:39:10;12.85;;;8.30;;
50363;SDS011;36272;59.400;17.982;2023-06-22T05:44:13;11.63;;;8.48;;
50363;SDS011;36272;59.400;17.982;2023-06-22T05:49:15;11.70;;;8.25;;
50363;SDS011;36272;59.400;17.982;2023-06-22T05:54:17;9.27;;;7.32;;
50363;SDS011;36272;59.400;17.982;2023-06-22T05:59:19;11.02;;;7.28;;
50363;SDS011;36272;59.400;17.982;2023-06-22T06:04:20;9.20;;;7.50;;
50363;SDS011;36272;59.400;17.982;2023-06-22T06:09:22;12.10;;;6.65;;
50363;SDS011;36272;59.400;17.982;2023-06-22T06:14:24;16.98;;;7.88;;
50363;SDS011;36272;59.400;17.982;2023-06-22T06:19:25;10.13;;;7.93;;
50363;SDS011;36272;59.400;17.982;2023-06-22T06:24:27;10.73;;;8.10;;
50363;SDS011;36272;59.400;17.982;2023-06-22T06:29:28;16.60;;;7.60;;
50363;SDS011;36272;59.400;17.982;2023-06-22T06:34:30;10.48;;;7.32;;
50363;SDS011;36272;59.400;17.982;2023-06-22T06:39:32;11.55;;;7.45;;
50363;SDS011;36272;59.400;17.982;2023-06-22T06:44:33;12.13;;;6.53;;
50363;SDS011;36272;59.400;17.982;2023-06-22T06:49:36;11.25;;;6.72;;
50363;SDS011;36272;59.400;17.982;2023-06-22T06:54:37;10.60;;;5.53;;
50363;SDS011;36272;59.400;17.982;2023-06-22T06:59:39;10.13;;;5.88;;
50363;SDS011;36272;59.400;17.982;2023-06-22T07:04:41;7.85;;;5.68;;
50363;SDS011;36272;59.400;17.982;2023-06-22T07:09:42;11.32;;;5.57;;
50363;SDS011;36272;59.400;17.982;2023-06-22T07:14:44;8.73;;;5.60;;
50363;SDS011;36272;59.400;17.982;2023-06-22T07:19:46;14.38;;;6.20;;
50363;SDS011;36272;59.400;17.982;2023-06-22T07:24:47;10.65;;;6.38;;
50363;SDS011;36272;59.400;17.982;2023-06-22T07:29:50;9.40;;;5.90;;
50363;SDS011;36272;59.400;17.982;2023-06-22T07:34:52;13.23;;;5.80;;
50363;SDS011;36272;59.400;17.982;2023-06-22T07:39:53;7.38;;;5.68;;
50363;SDS011;36272;59.400;17.982;2023-06-22T07:44:59;13.48;;;5.20;;
50363;SDS011;36272;59.400;17.982;2023-06-22T07:50:01;17.67;;;5.85;;
50363;SDS011;36272;59.400;17.982;2023-06-22T07:55:03;8.95;;;5.28;;
50363;SDS011;36272;59.400;17.982;2023-06-22T08:00:05;7.47;;;5.25;;
50363;SDS011;36272;59.400;17.982;2023-06-22T08:05:18;12.23;;;5.00;;
50363;SDS011;36272;59.400;17.982;2023-06-22T08:10:23;7.70;;;5.27;;
50363;SDS011;36272;59.400;17.982;2023-06-22T08:15:26;8.15;;;4.78;;
50363;SDS011;36272;59.400;17.982;2023-06-22T08:20:28;8.90;;;5.30;;
50363;SDS011;36272;59.400;17.982;2023-06-22T08:25:29;11.43;;;5.10;;
50363;SDS011;36272;59.400;17.982;2023-06-22T08:30:31;8.30;;;4.72;;
50363;SDS011;36272;59.400;17.982;2023-06-22T08:35:32;8.80;;;4.30;;
50363;SDS011;36272;59.400;17.982;2023-06-22T08:40:34;7.07;;;4.80;;
50363;SDS011;36272;59.400;17.982;2023-06-22T08:45:36;7.13;;;4.60;;
50363;SDS011;36272;59.400;17.982;2023-06-22T08:50:37;6.90;;;5.25;;
50363;SDS011;36272;59.400;17.982;2023-06-22T08:55:41;9.60;;;4.70;;
50363;SDS011;36272;59.400;17.982;2023-06-22T09:00:43;9.85;;;4.72;;
50363;SDS011;36272;59.400;17.982;2023-06-22T09:05:44;7.78;;;4.65;;
50363;SDS011;36272;59.400;17.982;2023-06-22T09:10:52;8.30;;;4.32;;
50363;SDS011;36272;59.400;17.982;2023-06-22T09:15:53;7.90;;;4.60;;
50363;SDS011;36272;59.400;17.982;2023-06-22T09:20:55;11.93;;;4.43;;
50363;SDS011;36272;59.400;17.982;2023-06-22T09:25:57;8.50;;;4.53;;
50363;SDS011;36272;59.400;17.982;2023-06-22T09:30:58;8.98;;;4.43;;
50363;SDS011;36272;59.400;17.982;2023-06-22T09:36:01;10.95;;;4.32;;
50363;SDS011;36272;59.400;17.982;2023-06-22T09:41:03;7.45;;;3.97;;
50363;SDS011;36272;59.400;17.982;2023-06-22T09:46:04;6.60;;;4.50;;
50363;SDS011;36272;59.400;17.982;2023-06-22T09:51:08;7.65;;;4.13;;
50363;SDS011;36272;59.400;17.982;2023-06-22T09:56:13;19.08;;;4.38;;
50363;SDS011;36272;59.400;17.982;2023-06-22T10:01:27;9.88;;;4.10;;
50363;SDS011;36272;59.400;17.982;2023-06-22T10:06:29;9.13;;;4.32;;
50363;SDS011;36272;59.400;17.982;2023-06-22T10:11:36;8.02;;;4.30;;
50363;SDS011;36272;59.400;17.982;2023-06-22T10:16:38;7.90;;;3.97;;
50363;SDS011;36272;59.400;17.982;2023-06-22T10:21:40;8.18;;;3.88;;
50363;SDS011;36272;59.400;17.982;2023-06-22T10:26:41;9.88;;;3.85;;
50363;SDS011;36272;59.400;17.982;2023-06-22T10:31:48;8.57;;;3.92;;
50363;SDS011;36272;59.400;17.982;2023-06-22T10:36:50;6.68;;;3.30;;
50363;SDS011;36272;59.400;17.982;2023-06-22T10:41:51;5.65;;;3.38;;
50363;SDS011;36272;59.400;17.982;2023-06-22T10:46:53;7.35;;;3.53;;
50363;SDS011;36272;59.400;17.982;2023-06-22T10:51:54;11.65;;;3.47;;
50363;SDS011;36272;59.400;17.982;2023-06-22T10:56:56;6.45;;;3.53;;
50363;SDS011;36272;59.400;17.982;2023-06-22T11:01:58;7.97;;;3.13;;
50363;SDS011;36272;59.400;17.982;2023-06-22T11:07:00;6.85;;;3.65;;
50363;SDS011;36272;59.400;17.982;2023-06-22T11:12:01;6.57;;;3.22;;
50363;SDS011;36272;59.400;17.982;2023-06-22T11:17:03;6.93;;;3.08;;
50363;SDS011;36272;59.400;17.982;2023-06-22T11:22:05;4.50;;;3.35;;
50363;SDS011;36272;59.400;17.982;2023-06-22T11:27:07;7.25;;;3.45;;
50363;SDS011;36272;59.400;17.982;2023-06-22T11:32:09;5.25;;;2.88;;
50363;SDS011;36272;59.400;17.982;2023-06-22T11:37:10;10.93;;;3.20;;
50363;SDS011;36272;59.400;17.982;2023-06-22T11:42:12;6.75;;;3.08;;
50363;SDS011;36272;59.400;17.982;2023-06-22T11:47:14;5.85;;;2.60;;
50363;SDS011;36272;59.400;17.982;2023-06-22T11:52:15;6.75;;;3.35;;
50363;SDS011;36272;59.400;17.982;2023-06-22T11:57:18;4.22;;;2.72;;
50363;SDS011;36272;59.400;17.982;2023-06-22T12:02:20;5.35;;;2.60;;
50363;SDS011;36272;59.400;17.982;2023-06-22T12:07:22;7.53;;;2.92;;
50363;SDS011;36272;59.400;17.982;2023-06-22T12:12:24;6.13;;;3.25;;
50363;SDS011;36272;59.400;17.982;2023-06-22T12:17:25;4.10;;;2.78;;
50363;SDS011;36272;59.400;17.982;2023-06-22T12:22:27;7.13;;;2.42;;
50363;SDS011;36272;59.400;17.982;2023-06-22T12:27:28;5.22;;;2.92;;
50363;SDS011;36272;59.400;17.982;2023-06-22T12:32:31;8.87;;;2.97;;
50363;SDS011;36272;59.400;17.982;2023-06-22T12:37:33;5.00;;;2.97;;
50363;SDS011;36272;59.400;17.982;2023-06-22T12:42:35;6.85;;;2.88;;
50363;SDS011;36272;59.400;17.982;2023-06-22T12:47:39;4.75;;;2.63;;
50363;SDS011;36272;59.400;17.982;2023-06-22T12:52:41;4.45;;;2.85;;
50363;SDS011;36272;59.400;17.982;2023-06-22T12:57:43;5.45;;;2.85;;
50363;SDS011;36272;59.400;17.982;2023-06-22T13:02:50;7.75;;;2.50;;
50363;SDS011;36272;59.400;17.982;2023-06-22T13:07:51;4.63;;;2.70;;
50363;SDS011;36272;59.400;17.982;2023-06-22T13:12:58;8.45;;;2.70;;
50363;SDS011;36272;59.400;17.982;2023-06-22T13:18:01;5.75;;;2.65;;
50363;SDS011;36272;59.400;17.982;2023-06-22T13:23:03;6.03;;;3.00;;
50363;SDS011;36272;59.400;17.982;2023-06-22T13:28:05;15.77;;;3.38;;
50363;SDS011;36272;59.400;17.982;2023-06-22T13:33:06;4.88;;;2.75;;
50363;SDS011;36272;59.400;17.982;2023-06-22T13:38:09;4.63;;;2.55;;
50363;SDS011;36272;59.400;17.982;2023-06-22T13:43:11;6.50;;;3.03;;
50363;SDS011;36272;59.400;17.982;2023-06-22T13:48:12;3.55;;;2.50;;
50363;SDS011;36272;59.400;17.982;2023-06-22T13:53:14;5.82;;;2.50;;
50363;SDS011;36272;59.400;17.982;2023-06-22T13:58:16;8.40;;;2.72;;
50363;SDS011;36272;59.400;17.982;2023-06-22T14:03:17;4.38;;;2.40;;
50363;SDS011;36272;59.400;17.982;2023-06-22T14:08:19;4.03;;;2.60;;
50363;SDS011;36272;59.400;17.982;2023-06-22T14:13:22;7.67;;;2.70;;
50363;SDS011;36272;59.400;17.982;2023-06-22T14:18:23;5.85;;;2.42;;
50363;SDS011;36272;59.400;17.982;2023-06-22T14:23:26;7.45;;;2.65;;
50363;SDS011;36272;59.400;17.982;2023-06-22T14:28:28;4.53;;;2.30;;
50363;SDS011;36272;59.400;17.982;2023-06-22T14:33:30;4.75;;;2.45;;
50363;SDS011;36272;59.400;17.982;2023-06-22T14:38:31;5.95;;;2.80;;
50363;SDS011;36272;59.400;17.982;2023-06-22T14:43:43;5.00;;;2.50;;
50363;SDS011;36272;59.400;17.982;2023-06-22T14:48:46;4.18;;;2.55;;
50363;SDS011;36272;59.400;17.982;2023-06-22T14:53:48;8.52;;;2.55;;
50363;SDS011;36272;59.400;17.982;2023-06-22T14:58:49;4.43;;;2.42;;
50363;SDS011;36272;59.400;17.982;2023-06-22T15:03:51;8.25;;;2.50;;
50363;SDS011;36272;59.400;17.982;2023-06-22T15:08:53;9.65;;;2.58;;
50363;SDS011;36272;59.400;17.982;2023-06-22T15:13:59;6.32;;;2.42;;
50363;SDS011;36272;59.400;17.982;2023-06-22T15:19:01;9.23;;;2.75;;
50363;SDS011;36272;59.400;17.982;2023-06-22T15:24:03;4.55;;;2.40;;
50363;SDS011;36272;59.400;17.982;2023-06-22T15:29:05;5.50;;;2.97;;
50363;SDS011;36272;59.400;17.982;2023-06-22T15:34:06;4.88;;;2.88;;
50363;SDS011;36272;59.400;17.982;2023-06-22T15:39:08;9.27;;;2.85;;
50363;SDS011;36272;59.400;17.982;2023-06-22T15:44:10;6.47;;;2.63;;
50363;SDS011;36272;59.400;17.982;2023-06-22T15:49:11;7.35;;;2.83;;
50363;SDS011;36272;59.400;17.982;2023-06-22T15:54:13;5.15;;;2.70;;
50363;SDS011;36272;59.400;17.982;2023-06-22T15:59:15;5.90;;;2.17;;
50363;SDS011;36272;59.400;17.982;2023-06-22T16:04:16;4.00;;;2.70;;
50363;SDS011;36272;59.400;17.982;2023-06-22T16:09:18;5.40;;;3.00;;
50363;SDS011;36272;59.400;17.982;2023-06-22T16:14:20;8.80;;;3.40;;
50363;SDS011;36272;59.400;17.982;2023-06-22T16:19:22;6.78;;;2.83;;
50363;SDS011;36272;59.400;17.982;2023-06-22T16:24:24;4.13;;;2.60;;
50363;SDS011;36272;59.400;17.982;2023-06-22T16:29:26;4.32;;;3.03;;
50363;SDS011;36272;59.400;17.982;2023-06-22T16:34:27;11.90;;;3.03;;
50363;SDS011;36272;59.400;17.982;2023-06-22T16:39:29;5.18;;;2.70;;
50363;SDS011;36272;59.400;17.982;2023-06-22T16:44:33;4.70;;;2.70;;
50363;SDS011;36272;59.400;17.982;2023-06-22T16:49:35;5.20;;;2.42;;
50363;SDS011;36272;59.400;17.982;2023-06-22T16:54:38;5.63;;;2.95;;
50363;SDS011;36272;59.400;17.982;2023-06-22T16:59:40;3.13;;;2.60;;
50363;SDS011;36272;59.400;17.982;2023-06-22T17:04:42;6.53;;;3.00;;
50363;SDS011;36272;59.400;17.982;2023-06-22T17:09:47;8.17;;;2.80;;
50363;SDS011;36272;59.400;17.982;2023-06-22T17:14:51;4.22;;;2.45;;
50363;SDS011;36272;59.400;17.982;2023-06-22T17:19:53;6.70;;;2.85;;
50363;SDS011;36272;59.400;17.982;2023-06-22T17:24:55;6.65;;;2.90;;
50363;SDS011;36272;59.400;17.982;2023-06-22T17:35:17;6.35;;;2.83;;
50363;SDS011;36272;59.400;17.982;2023-06-22T17:40:20;5.10;;;2.85;;
50363;SDS011;36272;59.400;17.982;2023-06-22T17:45:23;5.77;;;2.50;;
50363;SDS011;36272;59.400;17.982;2023-06-22T17:50:25;6.57;;;2.60;;
50363;SDS011;36272;59.400;17.982;2023-06-22T17:55:26;7.38;;;2.80;;
50363;SDS011;36272;59.400;17.982;2023-06-22T18:00:28;5.93;;;2.70;;
50363;SDS011;36272;59.400;17.982;2023-06-22T18:05:34;3.85;;;2.80;;
50363;SDS011;36272;59.400;17.982;2023-06-22T18:10:36;6.40;;;2.72;;
50363;SDS011;36272;59.400;17.982;2023-06-22T18:15:41;4.75;;;2.25;;
50363;SDS011;36272;59.400;17.982;2023-06-22T18:20:43;4.15;;;2.80;;
50363;SDS011;36272;59.400;17.982;2023-06-22T18:25:47;6.72;;;2.75;;
50363;SDS011;36272;59.400;17.982;2023-06-22T18:30:49;4.95;;;2.70;;
50363;SDS011;36272;59.400;17.982;2023-06-22T18:35:51;6.90;;;2.88;;
50363;SDS011;36272;59.400;17.982;2023-06-22T18:40:54;5.15;;;2.67;;
50363;SDS011;36272;59.400;17.982;2023-06-22T18:45:56;4.93;;;2.63;;
50363;SDS011;36272;59.400;17.982;2023-06-22T18:52:14;8.43;;;2.55;;
50363;SDS011;36272;59.400;17.982;2023-06-22T18:57:27;12.60;;;2.90;;
50363;SDS011;36272;59.400;17.982;2023-06-22T19:18:48;5.75;;;2.83;;
50363;SDS011;36272;59.400;17.982;2023-06-22T19:23:52;5.75;;;3.00;;
50363;SDS011;36272;59.400;17.982;2023-06-22T19:28:54;6.03;;;2.80;;
50363;SDS011;36272;59.400;17.982;2023-06-22T19:34:01;6.63;;;2.92;;
50363;SDS011;36272;59.400;17.982;2023-06-22T19:39:06;3.40;;;2.50;;
50363;SDS011;36272;59.400;17.982;2023-06-22T19:44:07;7.90;;;2.65;;
50363;SDS011;36272;59.400;17.982;2023-06-22T19:49:10;3.72;;;2.78;;
50363;SDS011;36272;59.400;17.982;2023-06-22T19:54:11;4.22;;;2.55;;
50363;SDS011;36272;59.400;17.982;2023-06-22T19:59:14;6.75;;;2.95;;
50363;SDS011;36272;59.400;17.982;2023-06-22T20:04:21;6.95;;;3.05;;
50363;SDS011;36272;59.400;17.982;2023-06-22T20:09:24;6.00;;;3.08;;
50363;SDS011;36272;59.400;17.982;2023-06-22T20:14:44;9.15;;;3.63;;
50363;SDS011;36272;59.400;17.982;2023-06-22T20:19:52;7.15;;;3.22;;
50363;SDS011;36272;59.400;17.982;2023-06-22T20:24:54;5.60;;;3.05;;
50363;SDS011;36272;59.400;17.982;2023-06-22T20:29:56;8.07;;;3.20;;
50363;SDS011;36272;59.400;17.982;2023-06-22T20:34:57;8.52;;;3.47;;
50363;SDS011;36272;59.400;17.982;2023-06-22T20:40:05;8.13;;;3.58;;
50363;SDS011;36272;59.400;17.982;2023-06-22T20:45:08;5.15;;;3.10;;
50363;SDS011;36272;59.400;17.982;2023-06-22T20:50:10;5.85;;;2.97;;
50363;SDS011;36272;59.400;17.982;2023-06-22T20:55:12;6.85;;;2.92;;
50363;SDS011;36272;59.400;17.982;2023-06-22T21:00:15;6.25;;;3.38;;
50363;SDS011;36272;59.400;17.982;2023-06-22T21:05:20;10.60;;;3.30;;
50363;SDS011;36272;59.400;17.982;2023-06-22T21:10:23;8.68;;;3.53;;
50363;SDS011;36272;59.400;17.982;2023-06-22T21:15:25;9.13;;;3.25;;
50363;SDS011;36272;59.400;17.982;2023-06-22T21:20:26;9.60;;;3.80;;
50363;SDS011;36272;59.400;17.982;2023-06-22T21:25:28;8.32;;;3.42;;
50363;SDS011;36272;59.400;17.982;2023-06-22T21:30:29;6.80;;;3.50;;
50363;SDS011;36272;59.400;17.982;2023-06-22T21:35:34;7.03;;;3.63;;
50363;SDS011;36272;59.400;17.982;2023-06-22T21:40:41;7.63;;;3.70;;
50363;SDS011;36272;59.400;17.982;2023-06-22T21:45:42;10.45;;;4.00;;
50363;SDS011;36272;59.400;17.982;2023-06-22T21:50:44;7.40;;;3.63;;
50363;SDS011;36272;59.400;17.982;2023-06-22T21:55:46;10.55;;;3.80;;
50363;SDS011;36272;59.400;17.982;2023-06-22T22:00:47;7.38;;;3.55;;
50363;SDS011;36272;59.400;17.982;2023-06-22T22:05:49;8.60;;;3.58;;
50363;SDS011;36272;59.400;17.982;2023-06-22T22:10:51;10.68;;;3.85;;
50363;SDS011;36272;59.400;17.982;2023-06-22T22:15:55;8.00;;;3.88;;
50363;SDS011;36272;59.400;17.982;2023-06-22T22:20:57;7.72;;;4.30;;
50363;SDS011;36272;59.400;17.982;2023-06-22T22:25:58;7.18;;;3.72;;
50363;SDS011;36272;59.400;17.982;2023-06-22T22:31:00;10.88;;;4.20;;
50363;SDS011;36272;59.400;17.982;2023-06-22T22:36:02;8.60;;;4.05;;
50363;SDS011;36272;59.400;17.982;2023-06-22T22:41:06;7.45;;;4.10;;
50363;SDS011;36272;59.400;17.982;2023-06-22T22:46:08;10.48;;;4.22;;
50363;SDS011;36272;59.400;17.982;2023-06-22T22:51:09;8.50;;;4.28;;
50363;SDS011;36272;59.400;17.982;2023-06-22T22:56:11;7.65;;;3.85;;
50363;SDS011;36272;59.400;17.982;2023-06-22T23:01:13;11.13;;;4.78;;
50363;SDS011;36272;59.400;17.982;2023-06-22T23:06:15;7.22;;;4.32;;
50363;SDS011;36272;59.400;17.982;2023-06-22T23:11:16;7.18;;;4.30;;
50363;SDS011;36272;59.400;17.982;2023-06-22T23:16:18;8.77;;;4.07;;
50363;SDS011;36272;59.400;17.982;2023-06-22T23:21:20;7.50;;;4.30;;
50363;SDS011;36272;59.400;17.982;2023-06-22T23:26:23;8.85;;;4.20;;
50363;SDS011;36272;59.400;17.982;2023-06-22T23:31:24;10.10;;;4.55;;
50363;SDS011;36272;59.400;17.982;2023-06-22T23:36:26;12.90;;;4.80;;
50363;SDS011;36272;59.400;17.982;2023-06-22T23:41:27;10.70;;;4.80;;
50363;SDS011;36272;59.400;17.982;2023-06-22T23:46:31;15.65;;;4.55;;
50363;SDS011;36272;59.400;17.982;2023-06-22T23:51:38;7.35;;;4.50;;
50363;SDS011;36272;59.400;17.982;2023-06-22T23:56:40;8.80;;;5.13;;
